Time;durP1;ratioP1;P1;durP2;ratioP2;P2;SDS_P1;SDS_P2;PMS_P1;PMS_P2;Temp;Humidity;BMP_temperature;BMP_pressure;BME280_temperature;BME280_humidity;BME280_pressure;Samples;Min_cycle;Max_cycle;Signal;HPM_P1;HPM_P2
2021/05/27 00:00:25;;;;;;;1.90;1.80;;;9.00;99.90;;;;;;5052878;28;20522;-64
2021/05/27 00:02:51;;;;;;;1.90;1.80;;;9.00;99.90;;;;;;5060012;28;20576;-64
2021/05/27 00:05:17;;;;;;;2.60;2.20;;;9.00;99.90;;;;;;5048477;28;20683;-64
2021/05/27 00:07:43;;;;;;;2.53;2.03;;;9.00;99.90;;;;;;5062224;28;20212;-64
2021/05/27 00:10:11;;;;;;;2.00;1.90;;;9.00;99.90;;;;;;5064524;28;20252;-64
2021/05/27 00:12:37;;;;;;;3.63;1.93;;;9.00;99.90;;;;;;5058523;28;20970;-64
2021/05/27 00:15:05;;;;;;;2.40;2.20;;;9.00;99.90;;;;;;5062469;28;20545;-64
2021/05/27 00:17:31;;;;;;;3.43;2.07;;;8.90;99.90;;;;;;5066178;28;20185;-64
2021/05/27 00:19:56;;;;;;;2.37;1.90;;;8.90;99.90;;;;;;5049656;28;20471;-64
2021/05/27 00:22:22;;;;;;;2.43;2.23;;;8.90;99.90;;;;;;5057619;28;20200;-64
2021/05/27 00:24:48;;;;;;;2.70;2.50;;;8.90;99.90;;;;;;5059035;28;20281;-64
2021/05/27 00:27:13;;;;;;;2.50;2.30;;;8.90;99.90;;;;;;5050832;28;20780;-64
2021/05/27 00:29:39;;;;;;;3.10;2.23;;;9.00;99.90;;;;;;5058260;28;20737;-64
2021/05/27 00:32:05;;;;;;;3.30;2.00;;;9.00;99.90;;;;;;5056207;28;20259;-64
2021/05/27 00:34:30;;;;;;;2.37;1.87;;;8.90;99.90;;;;;;5055442;28;20181;-64
2021/05/27 00:36:56;;;;;;;2.40;2.20;;;8.90;99.90;;;;;;5056108;28;20442;-64
2021/05/27 00:39:22;;;;;;;2.43;2.23;;;8.90;99.90;;;;;;5047542;28;20207;-64
2021/05/27 00:41:47;;;;;;;2.83;2.60;;;8.90;99.90;;;;;;5048043;28;20220;-64
2021/05/27 00:44:20;;;;;;;4.30;2.43;;;8.90;99.90;;;;;;5064032;28;20198;-63
2021/05/27 00:46:46;;;;;;;2.63;2.30;;;8.90;99.90;;;;;;5066757;28;20291;-63
2021/05/27 00:49:12;;;;;;;5.10;2.43;;;8.90;99.90;;;;;;5055690;28;20547;-64
2021/05/27 00:51:37;;;;;;;2.70;2.50;;;8.90;99.90;;;;;;5054600;28;20177;-64
2021/05/27 00:54:03;;;;;;;2.50;2.30;;;8.90;99.90;;;;;;5049573;28;20196;-64
2021/05/27 00:56:29;;;;;;;3.00;2.70;;;8.90;99.90;;;;;;5055717;28;20184;-64
2021/05/27 00:58:54;;;;;;;2.40;1.90;;;8.90;99.90;;;;;;5049684;28;20529;-64
2021/05/27 01:01:20;;;;;;;3.90;2.70;;;8.90;99.90;;;;;;5062399;28;20177;-64
2021/05/27 01:03:45;;;;;;;2.67;1.93;;;8.90;99.90;;;;;;5051086;28;20250;-64
2021/05/27 01:06:11;;;;;;;4.50;2.53;;;8.90;99.90;;;;;;5066616;28;20224;-64
2021/05/27 01:08:37;;;;;;;2.40;2.30;;;8.90;99.90;;;;;;5053771;28;20701;-64
2021/05/27 01:11:04;;;;;;;2.90;2.43;;;8.90;99.90;;;;;;5059299;28;20181;-64
2021/05/27 01:13:31;;;;;;;2.80;2.57;;;8.90;99.90;;;;;;5056737;28;20238;-64
2021/05/27 01:15:57;;;;;;;3.10;2.80;;;8.90;99.90;;;;;;5066327;28;20446;-64
2021/05/27 01:18:25;;;;;;;2.40;2.30;;;8.90;99.90;;;;;;5065123;28;20976;-64
2021/05/27 01:20:53;;;;;;;2.80;2.60;;;8.90;99.90;;;;;;5058516;28;20184;-64
2021/05/27 01:23:20;;;;;;;2.77;2.57;;;8.80;99.90;;;;;;5068396;28;20478;-63
2021/05/27 01:25:48;;;;;;;2.60;2.40;;;8.80;99.90;;;;;;5065172;28;21055;-64
2021/05/27 01:28:15;;;;;;;2.63;2.43;;;8.80;99.90;;;;;;5052375;28;20490;-64
2021/05/27 01:30:41;;;;;;;4.63;2.30;;;8.80;99.90;;;;;;5055170;28;20509;-64
2021/05/27 01:33:12;;;;;;;2.40;2.23;;;8.80;99.90;;;;;;5064581;28;20806;-64
2021/05/27 01:35:38;;;;;;;2.90;2.70;;;8.80;99.90;;;;;;5064128;28;20436;-64
2021/05/27 01:38:15;;;;;;;3.53;2.67;;;8.80;99.90;;;;;;5051556;28;20455;-64
2021/05/27 01:40:42;;;;;;;2.40;2.20;;;8.90;99.90;;;;;;5055798;28;20854;-64
2021/05/27 01:43:08;;;;;;;2.90;2.70;;;8.90;99.90;;;;;;5053187;28;20440;-64
2021/05/27 01:45:34;;;;;;;2.50;2.30;;;8.90;99.90;;;;;;5068714;28;20594;-64
2021/05/27 01:48:00;;;;;;;2.43;2.23;;;8.90;99.90;;;;;;5058306;28;20858;-64
2021/05/27 01:50:26;;;;;;;5.63;2.50;;;8.90;99.90;;;;;;5050385;28;20480;-64
2021/05/27 01:52:56;;;;;;;2.67;2.47;;;8.90;99.90;;;;;;5064958;28;20184;-64
2021/05/27 01:55:21;;;;;;;4.87;2.57;;;8.90;99.90;;;;;;5058579;28;20434;-64
2021/05/27 01:57:46;;;;;;;2.90;2.33;;;8.90;99.90;;;;;;5055960;28;20465;-64
2021/05/27 02:00:13;;;;;;;3.00;2.77;;;8.90;99.90;;;;;;5053644;28;20207;-64
2021/05/27 02:02:38;;;;;;;2.43;2.23;;;8.90;99.90;;;;;;5063626;28;20246;-64
2021/05/27 02:05:05;;;;;;;2.63;2.43;;;8.90;99.90;;;;;;5068710;28;20442;-64
2021/05/27 02:07:30;;;;;;;3.30;2.30;;;9.00;99.90;;;;;;5061265;28;20608;-64
2021/05/27 02:09:56;;;;;;;2.37;2.23;;;9.00;99.90;;;;;;5067079;28;20544;-64
2021/05/27 02:12:22;;;;;;;3.10;2.40;;;9.00;99.90;;;;;;5049785;28;20185;-64
2021/05/27 02:14:48;;;;;;;2.60;2.40;;;9.00;99.90;;;;;;5056786;28;20177;-64
2021/05/27 02:17:13;;;;;;;2.53;2.10;;;9.00;99.90;;;;;;5068795;28;20450;-64
2021/05/27 02:19:39;;;;;;;4.00;1.90;;;9.00;99.90;;;;;;5054096;28;20407;-64
2021/05/27 02:22:05;;;;;;;2.37;2.17;;;9.00;99.90;;;;;;5050109;28;20311;-64
2021/05/27 02:24:30;;;;;;;2.90;2.10;;;9.00;99.90;;;;;;5054479;28;20304;-64
2021/05/27 02:26:56;;;;;;;3.80;2.67;;;9.00;99.90;;;;;;5058194;28;20205;-64
2021/05/27 02:29:21;;;;;;;2.50;2.30;;;9.00;99.90;;;;;;5050502;28;20206;-64
2021/05/27 02:31:47;;;;;;;2.57;2.37;;;9.00;99.90;;;;;;5053980;28;20185;-64
2021/05/27 02:34:13;;;;;;;2.37;2.20;;;9.00;99.90;;;;;;5064195;28;20188;-64
2021/05/27 02:36:38;;;;;;;2.70;2.43;;;9.00;99.90;;;;;;5055007;28;20647;-64
2021/05/27 02:39:05;;;;;;;2.33;2.13;;;9.10;99.90;;;;;;5057013;28;20208;-64
2021/05/27 02:41:31;;;;;;;2.77;2.30;;;9.10;99.90;;;;;;5049623;28;20222;-64
2021/05/27 02:43:56;;;;;;;2.17;1.97;;;9.10;99.90;;;;;;5063215;28;20455;-64
2021/05/27 02:46:22;;;;;;;2.80;2.60;;;9.10;99.90;;;;;;5049178;28;20345;-64
2021/05/27 02:48:48;;;;;;;1.97;1.87;;;9.10;99.90;;;;;;5055813;28;20288;-64
2021/05/27 02:51:13;;;;;;;3.93;2.57;;;9.10;99.90;;;;;;5057515;28;20205;-64
2021/05/27 02:53:39;;;;;;;2.43;2.23;;;9.00;99.90;;;;;;5064139;28;20473;-64
2021/05/27 02:56:04;;;;;;;2.70;2.50;;;9.10;99.90;;;;;;5050303;28;20682;-64
2021/05/27 02:58:30;;;;;;;2.20;2.10;;;9.10;99.90;;;;;;5066994;28;20234;-64
2021/05/27 03:00:55;;;;;;;2.03;1.93;;;9.10;99.90;;;;;;5060037;28;20548;-64
2021/05/27 03:03:21;;;;;;;3.07;2.40;;;9.00;99.90;;;;;;5049420;28;20217;-64
2021/05/27 03:05:48;;;;;;;2.70;2.50;;;9.00;99.90;;;;;;5059192;28;20680;-66
2021/05/27 03:08:14;;;;;;;3.10;2.13;;;9.00;99.90;;;;;;5053031;28;20232;-65
2021/05/27 03:10:39;;;;;;;3.00;2.60;;;9.00;99.90;;;;;;5054498;28;20443;-66
2021/05/27 03:13:07;;;;;;;2.83;2.53;;;9.00;99.90;;;;;;5065432;28;20603;-63
2021/05/27 03:15:33;;;;;;;2.93;2.00;;;9.10;99.90;;;;;;5052264;28;20529;-65
2021/05/27 03:18:00;;;;;;;4.20;3.80;;;9.00;99.90;;;;;;5056170;28;20587;-66
2021/05/27 03:20:26;;;;;;;2.90;2.70;;;9.00;99.90;;;;;;5062940;28;20673;-63
2021/05/27 03:22:51;;;;;;;3.10;2.90;;;9.00;99.90;;;;;;5062805;28;20439;-63
2021/05/27 03:25:17;;;;;;;3.00;2.73;;;9.00;99.90;;;;;;5056621;28;20178;-65
2021/05/27 03:27:42;;;;;;;2.70;2.50;;;8.90;99.90;;;;;;5063482;28;20227;-63
2021/05/27 03:30:08;;;;;;;2.97;2.33;;;8.90;99.90;;;;;;5048265;28;20578;-64
2021/05/27 03:32:34;;;;;;;3.60;3.07;;;8.90;99.90;;;;;;5053772;28;20213;-66
2021/05/27 03:34:59;;;;;;;3.00;2.70;;;8.90;99.90;;;;;;5060172;28;20973;-65
2021/05/27 03:37:25;;;;;;;5.70;2.37;;;8.90;99.90;;;;;;5049161;28;20216;-65
2021/05/27 03:42:35;;;;;;;4.70;2.40;;;9.00;99.90;;;;;;5049690;28;20662;-63
2021/05/27 03:45:04;;;;;;;2.53;2.33;;;8.90;99.90;;;;;;5056876;28;20446;-66
2021/05/27 03:47:29;;;;;;;3.20;2.90;;;9.00;99.90;;;;;;5065594;28;20530;-64
2021/05/27 03:49:55;;;;;;;3.67;2.80;;;9.00;99.90;;;;;;5050753;28;20882;-64
2021/05/27 03:52:20;;;;;;;2.43;2.23;;;9.00;99.90;;;;;;5056031;28;20185;-64
2021/05/27 03:54:46;;;;;;;3.03;2.73;;;9.00;99.90;;;;;;5067290;28;20263;-64
2021/05/27 03:57:11;;;;;;;2.60;2.40;;;9.00;99.90;;;;;;5067000;28;20287;-64
2021/05/27 04:02:21;;;;;;;3.60;3.40;;;9.20;99.90;;;;;;5060547;28;20184;-64
2021/05/27 04:07:31;;;;;;;2.33;2.13;;;9.40;99.90;;;;;;5048463;28;20212;-64
2021/05/27 04:09:56;;;;;;;2.30;2.10;;;9.50;99.90;;;;;;5053056;28;20447;-64
2021/05/27 04:18:10;;;;;;;3.80;3.50;;;9.80;99.90;;;;;;5066825;28;20443;-64
2021/05/27 04:20:39;;;;;;;3.27;2.37;;;9.80;99.90;;;;;;5052947;28;20439;-64
2021/05/27 04:23:11;;;;;;;3.77;2.80;;;9.80;99.90;;;;;;5058744;28;20843;-64
2021/05/27 04:25:37;;;;;;;2.70;2.50;;;9.80;99.90;;;;;;5059148;28;20791;-64
2021/05/27 04:28:03;;;;;;;3.60;2.70;;;9.70;99.90;;;;;;5060355;28;20470;-64
2021/05/27 04:30:29;;;;;;;2.90;2.43;;;9.80;99.90;;;;;;5048026;28;20459;-64
2021/05/27 04:33:06;;;;;;;2.70;2.50;;;9.80;99.90;;;;;;5065649;28;20462;-64
2021/05/27 04:35:38;;;;;;;4.70;2.90;;;9.80;99.90;;;;;;5052667;28;20436;-66
2021/05/27 04:38:10;;;;;;;4.07;2.70;;;9.90;99.90;;;;;;5056155;28;20448;-66
2021/05/27 04:40:38;;;;;;;2.60;2.20;;;10.00;99.90;;;;;;5059416;28;20527;-66
2021/05/27 04:43:04;;;;;;;2.77;2.50;;;10.10;99.90;;;;;;5061686;28;20438;-66
2021/05/27 04:45:30;;;;;;;4.23;2.43;;;10.20;99.90;;;;;;5062541;28;20448;-66
2021/05/27 04:47:56;;;;;;;6.10;2.97;;;10.20;99.90;;;;;;5050757;28;20650;-66
2021/05/27 04:50:22;;;;;;;3.00;2.53;;;10.30;99.90;;;;;;5066078;28;20484;-66
2021/05/27 04:52:49;;;;;;;3.27;2.73;;;10.40;99.90;;;;;;5059954;28;20434;-66
2021/05/27 04:55:15;;;;;;;3.03;2.73;;;10.60;99.90;;;;;;5064514;28;20455;-66
2021/05/27 04:57:41;;;;;;;2.63;2.43;;;10.70;99.90;;;;;;5050779;28;20463;-66
2021/05/27 05:00:13;;;;;;;2.77;2.50;;;10.70;99.90;;;;;;5066085;28;20986;-66
2021/05/27 05:02:40;;;;;;;2.70;2.50;;;10.70;99.90;;;;;;5063102;28;20526;-66
2021/05/27 05:05:08;;;;;;;2.97;2.27;;;10.80;99.90;;;;;;5055222;28;20438;-66
2021/05/27 05:07:33;;;;;;;2.60;2.40;;;10.90;99.90;;;;;;5054825;28;20467;-66
2021/05/27 05:09:59;;;;;;;3.00;2.70;;;11.10;99.90;;;;;;5070000;28;20457;-66
2021/05/27 05:12:24;;;;;;;2.70;2.50;;;11.20;99.90;;;;;;5055145;28;20555;-66
2021/05/27 05:14:50;;;;;;;3.00;2.73;;;11.40;99.90;;;;;;5054867;28;20184;-66
2021/05/27 05:17:15;;;;;;;4.50;2.20;;;11.60;99.90;;;;;;5066944;28;20238;-66
2021/05/27 05:19:41;;;;;;;3.33;2.90;;;11.60;99.90;;;;;;5054395;28;20193;-66
2021/05/27 05:22:06;;;;;;;3.53;3.23;;;11.70;99.90;;;;;;5054534;28;20173;-66
2021/05/27 05:24:32;;;;;;;2.70;2.50;;;11.70;99.90;;;;;;5062775;28;20318;-66
2021/05/27 05:26:58;;;;;;;2.70;2.50;;;11.80;99.90;;;;;;5076444;28;20241;-66
2021/05/27 05:29:23;;;;;;;5.10;3.10;;;12.00;99.90;;;;;;5073921;28;20196;-66
2021/05/27 05:31:49;;;;;;;2.70;2.50;;;12.10;99.90;;;;;;5075868;28;20178;-66
2021/05/27 05:34:14;;;;;;;3.07;2.47;;;12.00;99.90;;;;;;5067117;28;20202;-66
2021/05/27 05:36:40;;;;;;;2.97;2.63;;;12.10;99.90;;;;;;5063096;28;20654;-66
2021/05/27 05:39:06;;;;;;;3.30;2.60;;;12.20;99.90;;;;;;5069733;28;20267;-66
2021/05/27 05:41:32;;;;;;;5.40;2.70;;;12.40;99.90;;;;;;5066398;28;20186;-66
2021/05/27 05:43:58;;;;;;;3.40;3.20;;;12.40;99.90;;;;;;5066838;28;20474;-66
2021/05/27 05:46:25;;;;;;;4.57;2.83;;;12.50;99.90;;;;;;5059520;28;20207;-66
2021/05/27 05:48:51;;;;;;;2.80;2.60;;;12.50;99.90;;;;;;5071380;28;20458;-66
2021/05/27 05:51:16;;;;;;;2.67;2.47;;;12.70;99.90;;;;;;5062364;28;20427;-66
2021/05/27 05:53:42;;;;;;;2.77;2.57;;;12.80;99.90;;;;;;5073840;28;20434;-66
2021/05/27 05:56:07;;;;;;;2.53;2.33;;;13.00;99.90;;;;;;5067479;28;20184;-66
2021/05/27 05:58:33;;;;;;;4.30;2.37;;;13.00;99.90;;;;;;5053305;28;20216;-66
2021/05/27 06:00:58;;;;;;;3.50;3.20;;;13.00;99.90;;;;;;5054199;28;20181;-66
2021/05/27 06:03:24;;;;;;;2.17;2.07;;;13.00;99.90;;;;;;5061903;28;20177;-66
2021/05/27 06:05:50;;;;;;;4.67;2.73;;;12.90;99.90;;;;;;5066078;28;20181;-66
2021/05/27 06:08:16;;;;;;;3.37;2.07;;;13.30;99.90;;;;;;5052657;28;20186;-69
2021/05/27 06:10:42;;;;;;;2.47;2.33;;;13.50;99.90;;;;;;5059792;28;20173;-71
2021/05/27 06:13:07;;;;;;;2.90;2.70;;;13.50;99.90;;;;;;5060783;28;20506;-69
2021/05/27 06:15:33;;;;;;;3.33;2.43;;;13.50;99.90;;;;;;5060351;28;20650;-69
2021/05/27 06:18:00;;;;;;;3.00;1.87;;;13.50;99.90;;;;;;5062630;28;20205;-69
2021/05/27 06:20:28;;;;;;;3.70;2.57;;;13.60;99.90;;;;;;5060116;28;20264;-69
2021/05/27 06:22:54;;;;;;;2.70;1.90;;;13.60;99.90;;;;;;5069303;28;20920;-69
2021/05/27 06:25:21;;;;;;;2.40;2.20;;;13.90;99.90;;;;;;5063288;28;20438;-69
2021/05/27 06:27:48;;;;;;;2.03;1.80;;;14.00;99.90;;;;;;5050197;28;20333;-70
2021/05/27 06:30:14;;;;;;;2.00;1.80;;;14.20;99.90;;;;;;5049259;28;20477;-69
2021/05/27 06:32:41;;;;;;;3.00;1.93;;;14.40;99.90;;;;;;5071383;28;20427;-69
2021/05/27 06:35:09;;;;;;;3.80;2.17;;;14.30;99.90;;;;;;5073238;28;20438;-69
2021/05/27 06:37:38;;;;;;;2.40;2.20;;;14.20;99.90;;;;;;5058201;28;20531;-69
2021/05/27 06:40:10;;;;;;;2.53;2.27;;;14.20;99.90;;;;;;5068073;28;20798;-69
2021/05/27 06:42:36;;;;;;;3.10;2.00;;;14.30;99.90;;;;;;5053563;28;21403;-69
2021/05/27 06:45:03;;;;;;;1.80;1.70;;;14.30;99.90;;;;;;5059565;28;20460;-69
2021/05/27 06:47:28;;;;;;;2.33;1.90;;;14.60;99.90;;;;;;5052872;28;20659;-67
2021/05/27 06:49:54;;;;;;;2.40;2.20;;;15.00;99.90;;;;;;5054551;28;20470;-67
2021/05/27 06:52:19;;;;;;;2.23;2.13;;;15.00;99.90;;;;;;5064719;28;20302;-68
2021/05/27 06:54:45;;;;;;;2.70;2.00;;;14.90;99.90;;;;;;5054106;28;20177;-68
2021/05/27 06:57:11;;;;;;;3.20;1.60;;;14.80;99.90;;;;;;5062353;28;20544;-68
2021/05/27 06:59:36;;;;;;;3.13;1.83;;;14.70;99.90;;;;;;5056525;28;20209;-68
2021/05/27 07:02:02;;;;;;;2.30;2.10;;;14.50;99.90;;;;;;5061250;28;20185;-68
2021/05/27 07:04:28;;;;;;;2.87;1.77;;;14.40;99.90;;;;;;5062133;28;20651;-68
2021/05/27 07:06:53;;;;;;;2.30;1.77;;;14.80;99.90;;;;;;5060686;28;20203;-68
2021/05/27 07:09:22;;;;;;;1.67;1.57;;;14.80;99.90;;;;;;5063715;28;20192;-67
2021/05/27 07:11:48;;;;;;;2.20;2.00;;;14.80;99.90;;;;;;5053827;28;20181;-68
2021/05/27 07:14:14;;;;;;;4.73;1.60;;;14.80;99.90;;;;;;5054580;28;20428;-67
2021/05/27 07:16:39;;;;;;;2.10;1.90;;;14.90;99.90;;;;;;5060783;28;20187;-68
2021/05/27 07:19:05;;;;;;;4.93;1.40;;;15.00;99.90;;;;;;5067251;28;20568;-68
2021/05/27 07:21:31;;;;;;;1.97;1.70;;;15.00;99.90;;;;;;5061690;28;20177;-68
2021/05/27 07:23:56;;;;;;;7.00;1.83;;;14.90;99.90;;;;;;5068570;28;20205;-67
2021/05/27 07:26:22;;;;;;;2.50;1.60;;;14.80;99.90;;;;;;5054454;28;20556;-68
2021/05/27 07:28:48;;;;;;;2.67;2.10;;;14.70;99.90;;;;;;5066617;28;20201;-67
2021/05/27 07:31:13;;;;;;;2.30;1.83;;;14.60;99.90;;;;;;5065407;28;20228;-67
2021/05/27 07:33:39;;;;;;;3.13;1.97;;;14.20;99.90;;;;;;5054729;28;20181;-68
2021/05/27 07:36:05;;;;;;;3.10;2.10;;;14.20;99.90;;;;;;5063977;28;20498;-68
2021/05/27 07:38:31;;;;;;;5.17;2.17;;;14.70;99.90;;;;;;5061909;28;20249;-68
2021/05/27 07:40:58;;;;;;;2.90;1.80;;;15.00;99.90;;;;;;5056418;28;20464;-68
2021/05/27 07:43:23;;;;;;;2.70;2.10;;;15.00;99.90;;;;;;5061557;28;20480;-68
2021/05/27 07:45:49;;;;;;;2.13;2.03;;;14.80;99.90;;;;;;5063300;28;20530;-68
2021/05/27 07:48:14;;;;;;;2.03;1.80;;;14.60;99.90;;;;;;5063120;28;20189;-67
2021/05/27 07:50:40;;;;;;;2.43;2.33;;;14.80;99.90;;;;;;5067089;28;20177;-68
2021/05/27 07:53:07;;;;;;;2.87;2.40;;;15.20;99.90;;;;;;5055733;28;20180;-68
2021/05/27 07:55:33;;;;;;;4.43;3.17;;;15.70;99.90;;;;;;5056782;28;20184;-68
2021/05/27 07:57:59;;;;;;;2.30;2.10;;;16.30;99.90;;;;;;5060871;28;20456;-68
2021/05/27 08:00:25;;;;;;;3.83;2.23;;;16.70;99.90;;;;;;5055048;28;20432;-68
2021/05/27 08:02:50;;;;;;;2.50;1.90;;;16.50;99.90;;;;;;5053735;28;20252;-68
2021/05/27 08:05:16;;;;;;;2.20;1.97;;;16.30;99.90;;;;;;5053432;28;20184;-67
2021/05/27 08:07:42;;;;;;;1.83;1.73;;;16.20;99.90;;;;;;5058080;28;20204;-67
2021/05/27 08:10:10;;;;;;;2.53;2.03;;;16.50;99.90;;;;;;5058001;28;20427;-68
2021/05/27 08:12:36;;;;;;;4.40;2.43;;;16.50;99.90;;;;;;5063226;28;20168;-67
2021/05/27 08:15:02;;;;;;;2.60;2.33;;;16.60;99.90;;;;;;5055219;28;20431;-67
2021/05/27 08:17:29;;;;;;;5.47;2.40;;;16.90;99.90;;;;;;5063568;28;20431;-67
2021/05/27 08:19:54;;;;;;;2.50;2.30;;;17.10;99.90;;;;;;5056019;28;20454;-67
2021/05/27 08:22:20;;;;;;;2.27;2.13;;;17.70;99.90;;;;;;5062513;28;20441;-68
2021/05/27 08:24:46;;;;;;;1.80;1.70;;;17.70;99.90;;;;;;5057278;28;20268;-68
2021/05/27 08:27:12;;;;;;;3.57;2.80;;;17.70;99.90;;;;;;5062012;28;20902;-67
2021/05/27 08:29:37;;;;;;;5.80;5.20;;;17.10;99.80;;;;;;5053745;28;20194;-67
2021/05/27 08:32:06;;;;;;;3.90;2.40;;;16.70;99.90;;;;;;5055078;28;20166;-67
2021/05/27 08:34:32;;;;;;;2.90;2.27;;;16.60;99.90;;;;;;5057138;28;20181;-67
2021/05/27 08:36:57;;;;;;;2.70;2.17;;;17.00;99.90;;;;;;5059006;28;21013;-67
2021/05/27 08:39:23;;;;;;;2.80;2.60;;;17.50;99.60;;;;;;5064785;28;20204;-67
2021/05/27 08:41:48;;;;;;;2.43;2.23;;;17.70;98.60;;;;;;5054612;28;20216;-67
2021/05/27 08:44:14;;;;;;;2.60;2.33;;;17.90;97.70;;;;;;5062606;28;20197;-67
2021/05/27 08:46:40;;;;;;;3.43;3.13;;;18.00;96.70;;;;;;5053606;28;20298;-67
2021/05/27 08:49:06;;;;;;;2.83;2.53;;;17.90;97.80;;;;;;5049928;28;20200;-68
2021/05/27 08:51:35;;;;;;;2.10;1.83;;;17.40;97.50;;;;;;5063603;28;21649;-68
2021/05/27 08:54:05;;;;;;;2.13;1.70;;;17.30;98.20;;;;;;5050167;28;20189;-68
2021/05/27 08:56:31;;;;;;;2.63;2.43;;;17.80;97.60;;;;;;5054371;28;20932;-67
2021/05/27 08:58:57;;;;;;;2.50;2.30;;;18.10;97.30;;;;;;5052878;28;20479;-67
2021/05/27 09:01:24;;;;;;;1.93;1.77;;;18.00;97.20;;;;;;5061649;28;20447;-68
2021/05/27 09:03:50;;;;;;;2.00;1.90;;;17.90;97.00;;;;;;5063004;28;20439;-67
2021/05/27 09:06:16;;;;;;;1.90;1.80;;;18.00;97.20;;;;;;5058175;28;20463;-68
2021/05/27 09:08:42;;;;;;;2.53;2.33;;;18.30;95.60;;;;;;5060523;28;20452;-67
2021/05/27 09:11:13;;;;;;;2.10;1.80;;;18.30;96.40;;;;;;5059388;28;20431;-68
2021/05/27 09:13:56;;;;;;;2.67;1.73;;;18.50;94.90;;;;;;5056178;28;20432;-68
2021/05/27 09:16:21;;;;;;;1.80;1.67;;;19.00;93.20;;;;;;5056693;28;21061;-67
2021/05/27 09:18:47;;;;;;;2.07;1.70;;;19.30;92.00;;;;;;5055693;28;20542;-68
2021/05/27 09:21:15;;;;;;;2.37;2.13;;;19.60;91.00;;;;;;5057824;28;20177;-69
2021/05/27 09:23:51;;;;;;;2.30;1.93;;;19.20;91.70;;;;;;5063367;28;20179;-68
2021/05/27 09:26:18;;;;;;;1.80;1.70;;;19.30;91.30;;;;;;5061330;28;20463;-68
2021/05/27 09:28:46;;;;;;;4.00;2.00;;;19.80;90.30;;;;;;5058409;28;20828;-68
2021/05/27 09:31:15;;;;;;;2.17;1.73;;;20.10;91.20;;;;;;5064733;28;20909;-68
2021/05/27 09:33:43;;;;;;;3.30;1.60;;;19.80;86.50;;;;;;5066225;28;20974;-67
2021/05/27 09:36:11;;;;;;;1.70;1.60;;;19.50;90.20;;;;;;5073840;28;20447;-68
2021/05/27 09:38:39;;;;;;;2.03;1.93;;;19.60;90.30;;;;;;5064967;28;20458;-68
2021/05/27 09:41:24;;;;;;;3.73;1.90;;;19.90;89.50;;;;;;5067856;28;20439;-68
2021/05/27 09:43:52;;;;;;;3.13;2.93;;;19.70;88.00;;;;;;5054166;28;20463;-67
2021/05/27 09:46:18;;;;;;;4.60;2.70;;;18.50;90.50;;;;;;5054517;28;20596;-67
2021/05/27 09:48:44;;;;;;;6.50;4.70;;;17.80;92.50;;;;;;5061872;28;20534;-68
2021/05/27 09:51:11;;;;;;;4.40;2.63;;;17.50;93.20;;;;;;5060590;28;20574;-68
2021/05/27 09:53:37;;;;;;;3.50;2.30;;;17.80;93.40;;;;;;5061807;28;20434;-68
2021/05/27 09:56:04;;;;;;;2.40;2.00;;;18.40;93.10;;;;;;5064205;28;20443;-68
2021/05/27 09:58:31;;;;;;;3.40;1.97;;;18.70;92.00;;;;;;5061337;28;20303;-68
2021/05/27 10:00:56;;;;;;;2.33;2.13;;;19.00;90.60;;;;;;5058032;28;20432;-67
2021/05/27 10:03:29;;;;;;;2.17;1.97;;;18.60;91.30;;;;;;5057716;28;20432;-67
2021/05/27 10:05:56;;;;;;;2.30;2.10;;;17.90;91.90;;;;;;5066861;28;20181;-65
2021/05/27 10:08:22;;;;;;;3.57;1.93;;;17.50;92.80;;;;;;5065876;28;20854;-65
2021/05/27 10:10:49;;;;;;;2.40;2.20;;;17.10;92.90;;;;;;5060548;28;20439;-64
2021/05/27 10:13:17;;;;;;;2.87;1.93;;;17.50;93.10;;;;;;5060022;28;20817;-64
2021/05/27 10:15:43;;;;;;;4.23;3.33;;;18.90;91.60;;;;;;5070215;28;20427;-64
2021/05/27 10:18:15;;;;;;;3.27;3.00;;;19.70;89.90;;;;;;5061926;28;20831;-64
2021/05/27 10:20:40;;;;;;;2.20;2.00;;;19.00;86.80;;;;;;5057504;28;20463;-66
2021/05/27 10:23:07;;;;;;;2.40;2.20;;;18.30;88.00;;;;;;5062036;28;20467;-66
2021/05/27 10:25:33;;;;;;;2.07;1.67;;;17.70;90.30;;;;;;5068485;28;20589;-62
2021/05/27 10:28:02;;;;;;;2.17;1.83;;;17.50;91.20;;;;;;5064928;28;20525;-65
2021/05/27 10:30:28;;;;;;;2.30;1.80;;;17.30;92.10;;;;;;5052856;28;20926;-63
2021/05/27 10:33:02;;;;;;;1.50;1.40;;;17.40;92.40;;;;;;5052448;28;20839;-65
2021/05/27 10:35:54;;;;;;;3.20;2.33;;;17.30;91.60;;;;;;5061692;28;20431;-64
2021/05/27 10:38:42;;;;;;;3.70;2.50;;;17.40;92.00;;;;;;5069651;28;20985;-65
2021/05/27 10:41:09;;;;;;;2.73;2.00;;;17.30;92.00;;;;;;5057888;28;20837;-63
2021/05/27 10:43:35;;;;;;;2.60;2.40;;;17.10;92.00;;;;;;5060439;28;20498;-63
2021/05/27 10:46:04;;;;;;;2.13;1.60;;;17.10;93.20;;;;;;5071020;28;20459;-62
2021/05/27 10:48:37;;;;;;;3.10;2.00;;;17.20;93.00;;;;;;5062233;28;20203;-63
2021/05/27 10:51:08;;;;;;;3.53;2.20;;;17.40;93.10;;;;;;5068304;28;20484;-69
2021/05/27 10:53:37;;;;;;;1.90;1.80;;;17.60;92.50;;;;;;5061163;28;20427;-65
2021/05/27 10:56:05;;;;;;;2.30;2.10;;;17.60;91.90;;;;;;5059700;28;20427;-65
2021/05/27 10:58:46;;;;;;;2.90;2.37;;;17.50;92.50;;;;;;5060305;28;20502;-67
2021/05/27 11:01:32;;;;;;;2.13;2.03;;;17.30;93.10;;;;;;5061210;28;20481;-64
2021/05/27 11:04:00;;;;;;;1.93;1.83;;;17.00;93.90;;;;;;5047479;28;20431;-66
2021/05/27 11:06:39;;;;;;;2.50;2.07;;;16.80;94.60;;;;;;5057825;28;20470;-65
2021/05/27 11:09:15;;;;;;;6.00;2.20;;;16.70;94.80;;;;;;5064514;28;20545;-65
2021/05/27 11:11:45;;;;;;;4.30;2.80;;;16.70;95.50;;;;;;5053601;28;20430;-65
2021/05/27 11:14:37;;;;;;;2.73;2.53;;;16.90;95.20;;;;;;5063656;28;20442;-64
2021/05/27 11:22:37;;;;;;;19.23;3.27;;;18.10;93.90;;;;;;5067776;28;20423;-65
2021/05/27 11:25:09;;;;;;;2.23;1.90;;;18.40;92.90;;;;;;5063215;28;20513;-65
2021/05/27 11:27:39;;;;;;;2.30;1.73;;;18.80;92.30;;;;;;5061463;28;20927;-65
2021/05/27 11:30:23;;;;;;;3.00;2.10;;;19.40;91.40;;;;;;5057056;28;20450;-65
2021/05/27 11:32:59;;;;;;;3.27;2.27;;;19.70;90.70;;;;;;5059782;28;20437;-65
2021/05/27 11:35:28;;;;;;;2.20;1.93;;;19.10;90.20;;;;;;5062185;28;20757;-65
2021/05/27 11:37:55;;;;;;;3.20;1.93;;;18.90;90.50;;;;;;5064355;28;20932;-65
2021/05/27 11:40:23;;;;;;;2.30;1.97;;;19.50;89.30;;;;;;5069723;28;20423;-65
2021/05/27 11:42:51;;;;;;;3.43;3.13;;;20.10;88.60;;;;;;5075457;28;20451;-65
2021/05/27 11:45:18;;;;;;;2.73;2.53;;;20.20;86.40;;;;;;5056260;28;20455;-64
2021/05/27 11:48:12;;;;;;;3.43;2.63;;;20.00;86.50;;;;;;5059815;28;20462;-65
2021/05/27 11:50:38;;;;;;;4.83;2.40;;;19.80;87.80;;;;;;5064957;28;20427;-65
2021/05/27 11:53:05;;;;;;;3.30;2.30;;;20.90;86.40;;;;;;5068564;28;20427;-65
2021/05/27 11:55:31;;;;;;;1.97;1.87;;;22.00;78.80;;;;;;5066816;28;20785;-64
2021/05/27 11:57:57;;;;;;;1.60;1.50;;;22.10;78.40;;;;;;5062112;28;20427;-64
2021/05/27 12:00:23;;;;;;;1.60;1.50;;;23.10;75.10;;;;;;5067832;28;20435;-66
2021/05/27 12:02:51;;;;;;;2.00;1.80;;;21.60;76.00;;;;;;5068159;28;20437;-67
2021/05/27 12:05:31;;;;;;;2.50;1.70;;;20.00;80.50;;;;;;5063795;28;20794;-65
2021/05/27 12:07:57;;;;;;;3.70;2.37;;;18.90;84.50;;;;;;5054959;28;20469;-65
2021/05/27 12:10:25;;;;;;;1.90;1.80;;;18.60;86.40;;;;;;5059007;28;20487;-65
2021/05/27 12:12:51;;;;;;;1.70;1.50;;;18.90;84.40;;;;;;5056247;28;20849;-65
2021/05/27 12:15:17;;;;;;;1.77;1.67;;;19.20;85.50;;;;;;5058869;28;20432;-65
2021/05/27 12:17:45;;;;;;;2.20;1.70;;;20.90;81.50;;;;;;5065236;28;20193;-65
2021/05/27 12:20:15;;;;;;;2.17;1.93;;;21.10;76.90;;;;;;5065834;28;20826;-64
2021/05/27 12:22:55;;;;;;;1.60;1.50;;;21.00;76.20;;;;;;5063155;28;20993;-64
2021/05/27 12:25:24;;;;;;;4.23;2.07;;;20.50;77.70;;;;;;5060804;28;20462;-64
2021/05/27 12:27:52;;;;;;;1.87;1.77;;;20.30;77.90;;;;;;5065007;28;20473;-67
2021/05/27 12:30:25;;;;;;;1.90;1.80;;;20.40;79.10;;;;;;5057797;28;20424;-65
2021/05/27 12:32:52;;;;;;;2.00;1.90;;;23.40;74.50;;;;;;5056483;28;20450;-65
2021/05/27 12:35:28;;;;;;;2.80;1.90;;;24.30;66.10;;;;;;5055396;28;20419;-67
2021/05/27 12:37:55;;;;;;;1.83;1.63;;;24.00;65.20;;;;;;5062323;28;20548;-64
2021/05/27 12:40:25;;;;;;;2.57;1.80;;;22.50;68.10;;;;;;5068824;28;20443;-66
2021/05/27 12:42:52;;;;;;;2.90;1.70;;;20.80;71.20;;;;;;5060398;28;20436;-67
2021/05/27 12:45:24;;;;;;;2.00;1.67;;;19.90;76.20;;;;;;5067062;28;20756;-68
2021/05/27 12:48:14;;;;;;;2.03;1.90;;;20.00;77.90;;;;;;5061376;28;20456;-66
2021/05/27 12:50:43;;;;;;;1.70;1.60;;;20.20;77.50;;;;;;5066319;28;20484;-66
2021/05/27 12:53:26;;;;;;;2.37;1.80;;;21.30;73.50;;;;;;5065796;28;20427;-65
2021/05/27 12:55:53;;;;;;;3.47;2.00;;;23.30;70.30;;;;;;5067178;28;20517;-65
2021/05/27 12:58:31;;;;;;;3.23;2.57;;;23.10;66.70;;;;;;5065184;28;20455;-64
2021/05/27 13:00:58;;;;;;;2.50;1.97;;;23.40;66.60;;;;;;5055621;28;20446;-65
2021/05/27 13:03:23;;;;;;;2.10;1.90;;;23.30;65.00;;;;;;5059883;28;20499;-64
2021/05/27 13:06:12;;;;;;;3.70;1.67;;;22.00;66.30;;;;;;5060769;28;20785;-64
2021/05/27 13:08:39;;;;;;;1.30;1.20;;;21.20;69.30;;;;;;5061865;28;20228;-65
2021/05/27 13:11:24;;;;;;;2.83;1.43;;;20.20;72.90;;;;;;5061777;28;20466;-64